Evelyn Maersk — OXHV2 — position and weather

sailwx.info

Track history (hours):
 
Tides and Currents Weather Stations Pressure Air Temp Water Temp Dewpoint Dewpoint Depression Visibility Wind Speed Wind Dir Waves Ship Positions

Evelyn Maersk

Last reported at 2018-Apr-25 22:00 UTC. Time now 2018-Apr-25 22:10 UTC.
Position N 49°28' E 000°09'.

Length 398 m; draft 14.9 m.

Type: Ship (hazmat cat A). MMSI: 220496000.

Date/timePositionNaut miles runAvg speedWind from/ knotsBaromVisibWave heightAir tempDewpointWater temp
2018-Apr-25 22:00N 49°28' E 000°09'0 0.0
2018-Apr-25 21:30N 49°28' E 000°09'0 0.0
2018-Apr-25 21:00N 49°28' E 000°09'0 0.0
2018-Apr-25 20:30N 49°28' E 000°09'0 0.0
2018-Apr-25 20:00N 49°28' E 000°09'0 0.0
2018-Apr-25 19:30N 49°28' E 000°09'0 0.0
2018-Apr-25 19:00N 49°28' E 000°09'0 0.0
2018-Apr-25 18:30N 49°28' E 000°09'0 0.0
2018-Apr-25 18:00N 49°28' E 000°09'0 0.0
2018-Apr-25 17:30N 49°28' E 000°09'0 0.0
2018-Apr-25 17:00N 49°28' E 000°09'0 0.0
2018-Apr-25 16:30N 49°28' E 000°09'0 0.0
2018-Apr-25 16:00N 49°28' E 000°09'0 0.0
2018-Apr-25 15:30N 49°28' E 000°09'0 0.0
2018-Apr-25 15:00N 49°28' E 000°09'0 0.0
2018-Apr-25 14:30N 49°28' E 000°09'0 0.2
2018-Apr-25 14:00N 49°28' E 000°09'2 3.7
2018-Apr-25 13:31N 49°28' E 000°06'511.0
2018-Apr-25 13:00N 49°30' W 000°01'713.7
2018-Apr-25 12:30N 49°34' W 000°11'918.1
2018-Apr-25 12:00N 49°43' W 000°12'1019.8
2018-Apr-25 11:30N 49°52' W 000°15'1020.2
2018-Apr-25 11:00N 50°02' W 000°16'1020.2
2018-Apr-25 10:30N 50°12' W 000°15'917.6
2018-Apr-25 10:00N 50°21' W 000°14'713.0
2018-Apr-25 09:30N 50°27' W 000°10'713.3
2018-Apr-25 09:00N 50°30' W 000°00'714.1
2018-Apr-25 08:30N 50°32' E 000°10'714.0
2018-Apr-25 08:00N 50°34' E 000°21'714.1
2018-Apr-25 07:31N 50°35' E 000°32'714.0
2018-Apr-25 07:01N 50°38' E 000°42'714.4
2018-Apr-25 06:31N 50°42' E 000°51'714.0
2018-Apr-25 06:00N 50°47' E 000°60'713.9
2018-Apr-25 05:31N 50°51' E 001°08'713.9
2018-Apr-25 05:00N 50°55' E 001°18'714.1
2018-Apr-25 04:30N 51°00' E 001°25'714.0
2018-Apr-25 04:00N 51°06' E 001°32'714.5
2018-Apr-25 03:31N 51°10' E 001°40'714.8
2018-Apr-25 03:01N 51°16' E 001°48'815.1
2018-Apr-25 02:30N 51°22' E 001°55'612.2
2018-Apr-25 02:00N 51°24' E 002°04'814.1
2018-Apr-25 01:28N 51°21' E 002°15'613.8
2018-Apr-25 01:00N 51°22' E 002°25'713.4
2018-Apr-25 00:28N 51°23' E 002°37'4 8.3
2018-Apr-25 00:00N 51°23' E 002°43'612.0
2018-Apr-24 23:30N 51°25' E 002°52'814.5
2018-Apr-24 22:59N 51°24' E 003°04'714.0
2018-Apr-24 22:30N 51°25' E 003°15'714.9
2018-Apr-24 22:00N 51°25' E 003°27'510.8
2018-Apr-24 21:31N 51°26' E 003°35'5 9.8
2018-Apr-24 21:00N 51°24' E 003°43'612.7
2018-Apr-24 20:30N 51°21' E 003°51'612.1
2018-Apr-24 20:01N 51°25' E 003°58'3 6.5
2018-Apr-24 19:30N 51°23' E 004°02'5 9.7
2018-Apr-24 19:00N 51°23' E 004°10'3 6.5
2018-Apr-24 18:30N 51°21' E 004°14'3 6.2
2018-Apr-24 18:00N 51°19' E 004°16'1 2.5
2018-Apr-24 17:27N 51°17' E 004°15'0 0.1
2018-Apr-24 17:00N 51°17' E 004°15'0 0.0
2018-Apr-24 16:30N 51°17' E 004°15'0 0.0
2018-Apr-24 15:57N 51°17' E 004°15'0 0.0
2018-Apr-24 15:30N 51°17' E 004°15'0 0.0
2018-Apr-24 15:00N 51°17' E 004°15'0 0.0
2018-Apr-24 14:30N 51°17' E 004°15'0 0.0
2018-Apr-24 14:00N 51°17' E 004°15'0 0.0
2018-Apr-24 13:30N 51°17' E 004°15'0 0.0
2018-Apr-24 12:57N 51°17' E 004°15'0 0.0
2018-Apr-24 12:30N 51°17' E 004°15'0 0.0
2018-Apr-24 11:57N 51°17' E 004°15'0 0.0
2018-Apr-24 11:30N 51°17' E 004°15'0 0.0
2018-Apr-24 11:00N 51°17' E 004°15'0 0.0
2018-Apr-24 10:30N 51°17' E 004°15'0 0.0
2018-Apr-24 10:00N 51°17' E 004°15'0 0.0
2018-Apr-24 09:30N 51°17' E 004°15'0 0.0
2018-Apr-24 08:57N 51°17' E 004°15'0 0.0
2018-Apr-24 08:30N 51°17' E 004°15'0 0.0
2018-Apr-24 07:57N 51°17' E 004°15'0 0.0
2018-Apr-24 07:24N 51°17' E 004°15'0 0.0
2018-Apr-24 06:57N 51°17' E 004°15'0 0.0
2018-Apr-24 06:30N 51°17' E 004°15'0 0.0
2018-Apr-24 06:00N 51°17' E 004°15'0 0.0
2018-Apr-24 05:30N 51°17' E 004°15'0 0.0
2018-Apr-24 05:00N 51°17' E 004°15'0 0.0
2018-Apr-24 04:30N 51°17' E 004°15'0 0.0
2018-Apr-24 04:00N 51°17' E 004°15'0 0.0
2018-Apr-24 03:30N 51°17' E 004°15'0 0.0
2018-Apr-24 02:57N 51°17' E 004°15'0 0.0
2018-Apr-24 02:30N 51°17' E 004°15'0 0.0
2018-Apr-24 02:00N 51°17' E 004°15'0 0.0
2018-Apr-24 01:30N 51°17' E 004°15'0 0.0
2018-Apr-24 01:00N 51°17' E 004°15'0 0.0
2018-Apr-24 00:27N 51°17' E 004°15'0 0.0
2018-Apr-23 23:57N 51°17' E 004°15'0 0.0
2018-Apr-23 23:30N 51°17' E 004°15'0 0.0
2018-Apr-23 23:00N 51°17' E 004°15'0 0.0
2018-Apr-23 22:30N 51°17' E 004°15'0 0.0
2018-Apr-23 22:00N 51°17' E 004°15'0 0.0
2018-Apr-23 21:30N 51°17' E 004°15'0 0.0
2018-Apr-23 20:57N 51°17' E 004°15'0 0.0
2018-Apr-23 20:30N 51°17' E 004°15'0 0.0
2018-Apr-23 19:57N 51°17' E 004°15'0 0.0
2018-Apr-23 19:30N 51°17' E 004°15'0 0.0
2018-Apr-23 19:00N 51°17' E 004°15'0 0.0
2018-Apr-23 18:30N 51°17' E 004°15'0 0.0
2018-Apr-23 17:54N 51°17' E 004°15'0 0.0
2018-Apr-23 17:30N 51°17' E 004°15'0 0.0
2018-Apr-23 16:57N 51°17' E 004°15'0 0.0
2018-Apr-23 16:30N 51°17' E 004°15'0 0.0
2018-Apr-23 15:54N 51°17' E 004°15'0 0.0
2018-Apr-23 15:24N 51°17' E 004°15'0 0.0
2018-Apr-23 15:00N 51°17' E 004°15'0 0.0
2018-Apr-23 14:30N 51°17' E 004°15'0 0.0
2018-Apr-23 14:00N 51°17' E 004°15'0 0.0
2018-Apr-23 13:30N 51°17' E 004°15'0 0.0
2018-Apr-23 13:00N 51°17' E 004°15'0 0.0
2018-Apr-23 12:30N 51°17' E 004°15'0 0.0
2018-Apr-23 12:00N 51°17' E 004°15'1 1.4
2018-Apr-23 11:31N 51°18' E 004°16'1 1.6
2018-Apr-23 11:00N 51°19' E 004°16'3 6.1
2018-Apr-23 10:31N 51°21' E 004°14'3 6.4
2018-Apr-23 10:00N 51°23' E 004°09'5 9.1
2018-Apr-23 09:30N 51°23' E 004°02'3 6.1
2018-Apr-23 09:00N 51°25' E 003°58'511.0
2018-Apr-23 08:30N 51°21' E 003°52'612.6
2018-Apr-23 08:00N 51°23' E 003°43'4 8.0
2018-Apr-23 07:31N 51°26' E 003°39'4 8.2
2018-Apr-23 07:00N 51°25' E 003°32'714.4
2018-Apr-23 06:30N 51°24' E 003°21'917.5
2018-Apr-23 06:00N 51°24' E 003°07'917.3
2018-Apr-23 05:31N 51°25' E 002°53'713.8
2018-Apr-23 05:00N 51°23' E 002°42'510.0
2018-Apr-23 04:29N 51°22' E 002°34'4 8.2
2018-Apr-23 04:00N 51°22' E 002°28'4 8.4
2018-Apr-23 03:30N 51°20' E 002°22'4 8.3
2018-Apr-23 03:00N 51°18' E 002°16'4 8.8
2018-Apr-23 02:31N 51°18' E 002°09'5 9.0
2018-Apr-23 02:00N 51°21' E 002°04'5 9.4
2018-Apr-23 01:30N 51°24' E 001°58'5 9.6
2018-Apr-23 01:00N 51°27' E 001°53'5 9.7
2018-Apr-23 00:30N 51°32' E 001°49'5 9.9
2018-Apr-23 00:00N 51°36' E 001°46'510.0
2018-Apr-22 23:30N 51°41' E 001°45'510.1
2018-Apr-22 23:00N 51°46' E 001°44'5 9.5
2018-Apr-22 22:31N 51°51' E 001°41'5 9.4
2018-Apr-22 22:00N 51°52' E 001°34'5 9.9
2018-Apr-22 21:30N 51°56' E 001°29'611.7
2018-Apr-22 21:00N 51°55' E 001°20'2 3.3
2018-Apr-22 20:30N 51°57' E 001°19'0 0.0
2018-Apr-22 20:00N 51°57' E 001°19'0 0.0
2018-Apr-22 19:30N 51°57' E 001°19'0 0.0
2018-Apr-22 19:00N 51°57' E 001°19'0 0.0
2018-Apr-22 18:30N 51°57' E 001°19'0 0.0
2018-Apr-22 18:00N 51°57' E 001°19'0 0.0
2018-Apr-22 17:30N 51°57' E 001°19'0 0.0
2018-Apr-22 17:00N 51°57' E 001°19'0 0.0
2018-Apr-22 16:30N 51°57' E 001°19'0 0.0
2018-Apr-22 16:00N 51°57' E 001°19'0 0.0
2018-Apr-22 15:30N 51°57' E 001°19'0 0.0
2018-Apr-22 15:00N 51°57' E 001°19'0 0.0
2018-Apr-22 14:30N 51°57' E 001°19'0 0.0
2018-Apr-22 14:00N 51°57' E 001°19'0 0.0
2018-Apr-22 13:30N 51°57' E 001°19'0 0.0
2018-Apr-22 12:57N 51°57' E 001°19'0 0.0
2018-Apr-22 12:30N 51°57' E 001°19'0 0.0
2018-Apr-22 12:00N 51°57' E 001°19'0 0.0
2018-Apr-22 11:30N 51°57' E 001°19'0 0.0
2018-Apr-22 11:00N 51°57' E 001°19'0 0.0
2018-Apr-22 10:30N 51°57' E 001°19'0 0.0
2018-Apr-22 10:00N 51°57' E 001°19'0 0.0
2018-Apr-22 09:30N 51°57' E 001°19'0 0.0
2018-Apr-22 09:00N 51°57' E 001°19'0 0.0
2018-Apr-22 08:30N 51°57' E 001°19'0 0.0
2018-Apr-22 08:00N 51°57' E 001°19'0 0.0
2018-Apr-22 07:30N 51°57' E 001°19'0 0.0
2018-Apr-22 07:00N 51°57' E 001°19'0 0.0
2018-Apr-22 06:30N 51°57' E 001°19'0 0.0
2018-Apr-22 06:00N 51°57' E 001°19'0 0.0
2018-Apr-22 05:30N 51°57' E 001°19'0 0.0
2018-Apr-22 05:00N 51°57' E 001°19'0 0.0
2018-Apr-22 04:30N 51°57' E 001°19'0 0.0
2018-Apr-22 04:00N 51°57' E 001°19'0 0.0
2018-Apr-22 03:30N 51°57' E 001°19'0 0.0
2018-Apr-22 03:00N 51°57' E 001°19'0 0.0
2018-Apr-22 02:30N 51°57' E 001°19'0 0.0
2018-Apr-22 02:00N 51°57' E 001°19'0 0.0
2018-Apr-22 01:30N 51°57' E 001°19'0 0.0
2018-Apr-22 01:00N 51°57' E 001°19'0 0.0
2018-Apr-22 00:30N 51°57' E 001°19'0 0.0
2018-Apr-22 00:00N 51°57' E 001°19'0 0.0
2018-Apr-21 23:30N 51°57' E 001°19'0 0.0
2018-Apr-21 23:00N 51°57' E 001°19'0 0.0
2018-Apr-21 22:30N 51°57' E 001°19'0 0.0
2018-Apr-21 22:00N 51°57' E 001°19'0 0.0
2018-Apr-21 21:27N 51°57' E 001°19'0 0.0
2018-Apr-21 21:00N 51°57' E 001°19'0 0.0
2018-Apr-21 20:30N 51°57' E 001°19'0 0.0
2018-Apr-21 20:00N 51°57' E 001°19'0 0.0
2018-Apr-21 19:30N 51°57' E 001°19'0 0.0
2018-Apr-21 19:00N 51°57' E 001°19'0 0.0
2018-Apr-21 18:30N 51°57' E 001°19'0 0.0
2018-Apr-21 18:00N 51°57' E 001°19'0 0.0
2018-Apr-21 17:30N 51°57' E 001°19'0 0.0
2018-Apr-21 17:00N 51°57' E 001°19'0 0.0
2018-Apr-21 16:30N 51°57' E 001°19'0 0.0
2018-Apr-21 16:00N 51°57' E 001°19'0 0.0
2018-Apr-21 15:30N 51°57' E 001°19'0 0.0
2018-Apr-21 15:00N 51°57' E 001°19'0 0.0
2018-Apr-21 14:30N 51°57' E 001°19'0 0.0
2018-Apr-21 14:00N 51°57' E 001°19'0 0.0
2018-Apr-21 13:30N 51°57' E 001°19'0 0.0
2018-Apr-21 13:00N 51°57' E 001°19'0 0.0
2018-Apr-21 12:30N 51°57' E 001°19'0 0.0
2018-Apr-21 12:00N 51°57' E 001°19'0 0.0
2018-Apr-21 11:30N 51°57' E 001°19'0 0.0
2018-Apr-21 11:00N 51°57' E 001°19'0 0.0
2018-Apr-21 10:30N 51°57' E 001°19'0 0.0
2018-Apr-21 10:00N 51°57' E 001°19'0 0.0
2018-Apr-21 09:30N 51°57' E 001°19'0 0.0
2018-Apr-21 09:00N 51°57' E 001°19'0 0.0
2018-Apr-21 08:30N 51°57' E 001°19'0 0.0
2018-Apr-21 08:00N 51°57' E 001°19'0 0.0
2018-Apr-21 07:30N 51°57' E 001°19'0 0.0
2018-Apr-21 06:57N 51°57' E 001°19'0 0.0
2018-Apr-21 06:30N 51°57' E 001°19'0 0.0
2018-Apr-21 06:00N 51°57' E 001°19'0 0.0
2018-Apr-21 05:30N 51°57' E 001°19'0 0.0
2018-Apr-21 05:00N 51°57' E 001°19'0 0.0
2018-Apr-21 04:30N 51°57' E 001°19'0 0.0
2018-Apr-21 04:00N 51°57' E 001°19'0 0.0
2018-Apr-21 03:27N 51°57' E 001°19'0 0.0
2018-Apr-21 03:00N 51°57' E 001°19'0 0.0
2018-Apr-21 02:30N 51°57' E 001°19'0 0.0
2018-Apr-21 02:00N 51°57' E 001°19'0 0.0
2018-Apr-21 01:30N 51°57' E 001°19'0 0.0
2018-Apr-21 01:00N 51°57' E 001°19'0 0.0
2018-Apr-21 00:30N 51°57' E 001°19'0 0.0
2018-Apr-21 00:00N 51°57' E 001°19'0 0.0
2018-Apr-20 23:30N 51°57' E 001°19'0 0.0
2018-Apr-20 23:00N 51°57' E 001°19'0 0.0
2018-Apr-20 22:30N 51°57' E 001°19'0 0.0
2018-Apr-20 22:00N 51°57' E 001°19'0 0.0
2018-Apr-20 21:30N 51°57' E 001°19'0 0.1
2018-Apr-20 21:00N 51°57' E 001°19'0 0.9
2018-Apr-20 20:30N 51°56' E 001°19'4 7.6
2018-Apr-20 20:00N 51°56' E 001°25'611.9
2018-Apr-20 19:30N 51°54' E 001°34'4 8.9
2018-Apr-20 19:01N 51°52' E 001°40'3 5.0
2018-Apr-20 18:30N 51°52' E 001°44'510.3
2018-Apr-20 18:01N 51°49' E 001°52'510.8
2018-Apr-20 17:30N 51°52' E 001°60'510.6
2018-Apr-20 17:00N 51°54' E 002°07'510.6
2018-Apr-20 16:30N 51°56' E 002°15'611.5
2018-Apr-20 16:00N 51°58' E 002°24'2614.3
2018-Apr-20 14:12N 52°12' E 002°59'315.3
2018-Apr-20 14:00N 52°15' E 003°02'915.5
2018-Apr-20 13:27N 52°22' E 003°11'715.6
2018-Apr-20 13:00N 52°27' E 003°18'815.6
2018-Apr-20 12:29N 52°33' E 003°26'815.9
2018-Apr-20 12:01N 52°39' E 003°34'815.8
2018-Apr-20 11:31N 52°45' E 003°42'816.1
2018-Apr-20 11:01N 52°51' E 003°51'815.9
2018-Apr-20 10:30N 52°57' E 003°60'816.1
2018-Apr-20 10:00N 53°03' E 004°10'815.8
2018-Apr-20 09:30N 53°08' E 004°19'815.0
2018-Apr-20 09:00N 53°14' E 004°27'815.4
2018-Apr-20 08:31N 53°21' E 004°32'815.3
2018-Apr-20 08:00N 53°28' E 004°38'715.2
2018-Apr-20 07:30N 53°32' E 004°49'815.3
2018-Apr-20 07:00N 53°34' E 005°01'815.1
2018-Apr-20 06:30N 53°37' E 005°13'714.8
2018-Apr-20 06:00N 53°39' E 005°24'715.0
2018-Apr-20 05:31N 53°42' E 005°36'816.0
2018-Apr-20 05:00N 53°44' E 005°49'915.9
2018-Apr-20 04:27N 53°47' E 006°04'715.7
2018-Apr-20 04:00N 53°49' E 006°15'815.6
2018-Apr-20 03:30N 53°51' E 006°27'815.6
2018-Apr-20 03:00N 53°53' E 006°40'815.7
2018-Apr-20 02:28N 53°55' E 006°54'715.5
2018-Apr-20 02:00N 53°56' E 007°06'815.6
2018-Apr-20 01:29N 53°58' E 007°20'815.5
2018-Apr-20 00:59N 53°59' E 007°33'714.5
2018-Apr-20 00:29N 53°55' E 007°44'814.4
2018-Apr-19 23:54N 53°50' E 007°54'512.3
2018-Apr-19 23:30N 53°48' E 008°01'713.5
2018-Apr-19 23:00N 53°41' E 008°05'611.6
2018-Apr-19 22:30N 53°36' E 008°10'1 1.6
2018-Apr-19 22:00N 53°35' E 008°09'0 0.1
2018-Apr-19 21:28N 53°35' E 008°09'0 0.0
2018-Apr-19 20:58N 53°35' E 008°09'0 0.0
2018-Apr-19 20:28N 53°35' E 008°09'0 0.0
2018-Apr-19 19:58N 53°35' E 008°09'0 0.0
2018-Apr-19 19:28N 53°35' E 008°09'0 0.0
2018-Apr-19 18:58N 53°35' E 008°09'0 0.0
2018-Apr-19 18:28N 53°35' E 008°09'0 0.0
2018-Apr-19 17:58N 53°35' E 008°09'0 0.0
2018-Apr-19 17:28N 53°35' E 008°09'0 0.0
2018-Apr-19 16:55N 53°35' E 008°09'0 0.0
2018-Apr-19 16:28N 53°35' E 008°09'0 0.0
2018-Apr-19 15:58N 53°35' E 008°09'0 0.0
2018-Apr-19 15:25N 53°35' E 008°09'0 0.0
2018-Apr-19 14:58N 53°35' E 008°09'0 0.0
2018-Apr-19 14:28N 53°35' E 008°09'0 0.0
2018-Apr-19 13:58N 53°35' E 008°09'0 0.0
2018-Apr-19 13:28N 53°35' E 008°09'0 0.0
2018-Apr-19 12:58N 53°35' E 008°09'0 0.0
2018-Apr-19 12:28N 53°35' E 008°09'0 0.0
2018-Apr-19 11:58N 53°35' E 008°09'0 0.0
2018-Apr-19 11:28N 53°35' E 008°09'0 0.0
2018-Apr-19 10:58N 53°35' E 008°09'0 0.0
2018-Apr-19 10:28N 53°35' E 008°09'0 0.0
2018-Apr-19 09:58N 53°35' E 008°09'0 0.0
2018-Apr-19 09:28N 53°35' E 008°09'0 0.0
2018-Apr-19 08:58N 53°35' E 008°09'0 0.0
2018-Apr-19 08:28N 53°35' E 008°09'0 0.0
2018-Apr-19 07:58N 53°35' E 008°09'0 0.0
2018-Apr-19 07:28N 53°35' E 008°09'0 0.0
2018-Apr-19 06:58N 53°35' E 008°09'0 0.0
2018-Apr-19 06:30N 53°35' E 008°09'1 1.1
2018-Apr-19 06:00N 53°36' E 008°09'3 6.0
2018-Apr-19 05:30N 53°39' E 008°08'612.5
2018-Apr-19 05:00N 53°44' E 008°03'611.1
2018-Apr-19 04:30N 53°49' E 007°57'5 9.2
2018-Apr-19 04:00N 53°52' E 007°53'919.0
2018-Apr-19 03:31N 53°49' E 008°07'918.7
2018-Apr-19 03:01N 53°42' E 008°19'815.4
2018-Apr-19 02:30N 53°37' E 008°29'2 3.2
2018-Apr-19 02:00N 53°36' E 008°31'0 0.0
2018-Apr-19 01:29N 53°36' E 008°31'0 0.0
2018-Apr-19 00:59N 53°36' E 008°31'0 0.0
2018-Apr-19 00:29N 53°36' E 008°31'0 0.0
2018-Apr-18 23:59N 53°36' E 008°31'0 0.0
2018-Apr-18 23:29N 53°36' E 008°31'0 0.0
2018-Apr-18 22:59N 53°36' E 008°31'0 0.0
2018-Apr-18 22:29N 53°36' E 008°31'0 0.0
2018-Apr-18 21:59N 53°36' E 008°31'0 0.0
2018-Apr-18 21:29N 53°36' E 008°31'0 0.0
2018-Apr-18 20:59N 53°36' E 008°31'0 0.0
2018-Apr-18 20:29N 53°36' E 008°31'0 0.0
2018-Apr-18 19:59N 53°36' E 008°31'0 0.0
2018-Apr-18 19:29N 53°36' E 008°31'0 0.0
2018-Apr-18 18:59N 53°36' E 008°31'0 0.0
2018-Apr-18 18:29N 53°36' E 008°31'0 0.0
2018-Apr-18 17:59N 53°36' E 008°31'0 0.0
2018-Apr-18 17:29N 53°36' E 008°31'0 0.0
2018-Apr-18 16:59N 53°36' E 008°31'0 0.0
2018-Apr-18 16:29N 53°36' E 008°31'0 0.0
2018-Apr-18 15:59N 53°36' E 008°31'0 0.0
2018-Apr-18 15:29N 53°36' E 008°31'0 0.0
2018-Apr-18 14:59N 53°36' E 008°31'0 0.0
2018-Apr-18 14:29N 53°36' E 008°31'0 0.0
2018-Apr-18 13:59N 53°36' E 008°31'0 0.0
2018-Apr-18 13:26N 53°36' E 008°31'0 0.0
2018-Apr-18 12:59N 53°36' E 008°31'0 0.0
2018-Apr-18 12:29N 53°36' E 008°31'0 0.0
2018-Apr-18 11:59N 53°36' E 008°31'0 0.0
2018-Apr-18 11:26N 53°36' E 008°31'0 0.0
2018-Apr-18 10:59N 53°36' E 008°31'0 0.0
2018-Apr-18 10:29N 53°36' E 008°31'0 0.0
2018-Apr-18 09:59N 53°36' E 008°31'0 0.0
2018-Apr-18 09:29N 53°36' E 008°31'0 0.0
2018-Apr-18 08:59N 53°36' E 008°31'0 0.0
2018-Apr-18 08:29N 53°36' E 008°31'0 0.0
2018-Apr-18 07:59N 53°36' E 008°31'0 0.0
2018-Apr-18 07:29N 53°36' E 008°31'0 0.0
2018-Apr-18 06:59N 53°36' E 008°31'0 0.0
2018-Apr-18 06:29N 53°36' E 008°31'0 0.0
2018-Apr-18 05:59N 53°36' E 008°31'0 0.0
2018-Apr-18 05:29N 53°36' E 008°31'0 0.0
2018-Apr-18 04:59N 53°36' E 008°31'0 0.0
2018-Apr-18 04:29N 53°36' E 008°31'0 0.0
2018-Apr-18 03:59N 53°36' E 008°31'0 0.0
2018-Apr-18 03:29N 53°36' E 008°31'0 0.0
2018-Apr-18 02:59N 53°36' E 008°31'0 0.0
2018-Apr-18 02:29N 53°36' E 008°31'0 0.0
2018-Apr-18 01:59N 53°36' E 008°31'0 0.0
2018-Apr-18 01:29N 53°36' E 008°31'0 0.0
2018-Apr-18 00:59N 53°36' E 008°31'0 0.0
2018-Apr-18 00:29N 53°36' E 008°31'0 0.0
2018-Apr-17 23:59N 53°36' E 008°31'0 0.0
2018-Apr-17 23:29N 53°36' E 008°31'0 0.0
2018-Apr-17 23:01N 53°36' E 008°31'0 0.9
2018-Apr-17 22:31N 53°36' E 008°31'1 1.3
2018-Apr-17 22:00N 53°36' E 008°30'510.7
2018-Apr-17 21:31N 53°40' E 008°23'816.1
2018-Apr-17 21:00N 53°45' E 008°13'816.6
2018-Apr-17 20:30N 53°51' E 008°03'918.8
2018-Apr-17 20:00N 53°53' E 007°47'814.5
2018-Apr-17 19:29N 53°57' E 007°36'612.2
2018-Apr-17 19:00N 54°01' E 007°42'1614.4
2018-Apr-17 17:52N 54°01' E 008°10'3 7.8
2018-Apr-17 17:30N 54°00' E 008°15'611.5
2018-Apr-17 17:00N 53°59' E 008°24'918.0
2018-Apr-17 16:30N 53°57' E 008°39'714.2
2018-Apr-17 16:00N 53°51' E 008°46'714.1
2018-Apr-17 15:30N 53°51' E 008°58'713.2
2018-Apr-17 15:00N 53°53' E 009°08'510.3
2018-Apr-17 14:30N 53°52' E 009°17'612.2
2018-Apr-17 14:01N 53°47' E 009°23'510.5
2018-Apr-17 13:30N 53°43' E 009°29'5 9.4
2018-Apr-17 13:00N 53°39' E 009°31'510.4
2018-Apr-17 12:30N 53°35' E 009°37'4 8.4
2018-Apr-17 12:00N 53°34' E 009°44'4 8.3
2018-Apr-17 11:30N 53°33' E 009°51'3 5.3
2018-Apr-17 10:59N 53°32' E 009°55'0 0.3
2018-Apr-17 10:29N 53°32' E 009°55'0 0.0
2018-Apr-17 09:59N 53°32' E 009°55'0 0.0
2018-Apr-17 09:29N 53°32' E 009°55'0 0.0
2018-Apr-17 08:59N 53°32' E 009°55'0 0.0
2018-Apr-17 08:29N 53°32' E 009°55'0 0.0
2018-Apr-17 07:59N 53°32' E 009°55'0 0.0
2018-Apr-17 07:29N 53°32' E 009°55'0 0.0
2018-Apr-17 06:59N 53°32' E 009°55'0 0.0
2018-Apr-17 06:29N 53°32' E 009°55'0 0.0
2018-Apr-17 05:59N 53°32' E 009°55'0 0.0
2018-Apr-17 05:29N 53°32' E 009°55'0 0.0
2018-Apr-17 04:59N 53°32' E 009°55'0 0.0
2018-Apr-17 04:29N 53°32' E 009°55'0 0.0
2018-Apr-17 03:59N 53°32' E 009°55'0 0.0
2018-Apr-17 03:29N 53°32' E 009°55'0 0.0
2018-Apr-17 02:59N 53°32' E 009°55'0 0.0
2018-Apr-17 02:29N 53°32' E 009°55'0 0.0
2018-Apr-17 01:59N 53°32' E 009°55'0 0.0
2018-Apr-17 01:29N 53°32' E 009°55'0 0.0
2018-Apr-17 00:59N 53°32' E 009°55'0 0.0
2018-Apr-17 00:29N 53°32' E 009°55'0 0.0
2018-Apr-16 23:59N 53°32' E 009°55'0 0.0
2018-Apr-16 23:29N 53°32' E 009°55'0 0.0
2018-Apr-16 22:59N 53°32' E 009°55'0 0.0
2018-Apr-16 22:29N 53°32' E 009°55'0 0.0
2018-Apr-16 21:59N 53°32' E 009°55'0 0.0
2018-Apr-16 21:29N 53°32' E 009°55'0 0.0
2018-Apr-16 20:59N 53°32' E 009°55'0 0.0
2018-Apr-16 20:29N 53°32' E 009°55'0 0.0
2018-Apr-16 19:59N 53°32' E 009°55'0 0.0
2018-Apr-16 19:29N 53°32' E 009°55'0 0.0
2018-Apr-16 18:59N 53°32' E 009°55'0 0.0
2018-Apr-16 18:29N 53°32' E 009°55'0 0.0
2018-Apr-16 17:59N 53°32' E 009°55'0 0.0
2018-Apr-16 17:29N 53°32' E 009°55'0 0.0
2018-Apr-16 16:59N 53°32' E 009°55'0 0.0
2018-Apr-16 16:29N 53°32' E 009°55'0 0.0
2018-Apr-16 15:59N 53°32' E 009°55'0 0.0
2018-Apr-16 15:29N 53°32' E 009°55'0 0.0
2018-Apr-16 14:59N 53°32' E 009°55'0 0.0
2018-Apr-16 14:29N 53°32' E 009°55'0 0.0
2018-Apr-16 13:59N 53°32' E 009°55'0 0.0
2018-Apr-16 13:29N 53°32' E 009°55'0 0.0
2018-Apr-16 12:59N 53°32' E 009°55'0 0.0
2018-Apr-16 12:29N 53°32' E 009°55'0 0.0
2018-Apr-16 11:59N 53°32' E 009°55'0 0.0
2018-Apr-16 11:29N 53°32' E 009°55'0 0.0
2018-Apr-16 10:59N 53°32' E 009°55'0 0.0
2018-Apr-16 10:29N 53°32' E 009°55'0 0.0
2018-Apr-16 09:59N 53°32' E 009°55'0 0.0
2018-Apr-16 09:29N 53°32' E 009°55'0 0.0
2018-Apr-16 08:59N 53°32' E 009°55'0 0.0
2018-Apr-16 08:29N 53°32' E 009°55'0 0.0
2018-Apr-16 07:59N 53°32' E 009°55'0 0.0
2018-Apr-16 07:29N 53°32' E 009°55'0 0.0
2018-Apr-16 06:59N 53°32' E 009°55'0 0.0
2018-Apr-16 06:29N 53°32' E 009°55'0 0.0
2018-Apr-16 05:59N 53°32' E 009°55'0 0.0
2018-Apr-16 05:29N 53°32' E 009°55'0 0.0
2018-Apr-16 04:59N 53°32' E 009°55'0 0.0
2018-Apr-16 04:31N 53°32' E 009°55'0 0.5
2018-Apr-16 04:01N 53°32' E 009°55'1 1.7
2018-Apr-16 03:31N 53°32' E 009°54'3 5.4
2018-Apr-16 03:00N 53°33' E 009°50'5 9.5
2018-Apr-16 02:31N 53°34' E 009°42'611.7
2018-Apr-16 02:01N 53°37' E 009°33'611.1
2018-Apr-16 01:30N 53°42' E 009°30'611.9
2018-Apr-16 01:00N 53°47' E 009°23'612.2
2018-Apr-16 00:31N 53°52' E 009°18'612.0
2018-Apr-16 00:00N 53°53' E 009°08'611.8
2018-Apr-15 23:30N 53°51' E 008°58'713.6
2018-Apr-15 23:00N 53°51' E 008°47'612.8
2018-Apr-15 22:30N 53°56' E 008°40'714.8
2018-Apr-15 22:00N 53°59' E 008°28'  
Track history (hours):
 
Tides and Currents Weather Stations Pressure Air Temp Water Temp Dewpoint Dewpoint Depression Visibility Wind Speed Wind Dir Waves Ship Positions

Evelyn Maersk

Last reported at 2018-Apr-25 22:00 UTC. Time now 2018-Apr-25 22:10 UTC.
Position N 49°28' E 000°09'.

Length 398 m; draft 14.9 m.

Type: Ship (hazmat cat A). MMSI: 220496000.

Date/timePositionNaut miles runAvg speedWind from/ knotsBaromVisibWave heightAir tempDewpointWater temp
2018-Apr-25 22:00N 49°28' E 000°09'0 0.0
2018-Apr-25 21:30N 49°28' E 000°09'0 0.0
2018-Apr-25 21:00N 49°28' E 000°09'0 0.0
2018-Apr-25 20:30N 49°28' E 000°09'0 0.0
2018-Apr-25 20:00N 49°28' E 000°09'0 0.0
2018-Apr-25 19:30N 49°28' E 000°09'0 0.0
2018-Apr-25 19:00N 49°28' E 000°09'0 0.0
2018-Apr-25 18:30N 49°28' E 000°09'0 0.0
2018-Apr-25 18:00N 49°28' E 000°09'0 0.0
2018-Apr-25 17:30N 49°28' E 000°09'0 0.0
2018-Apr-25 17:00N 49°28' E 000°09'0 0.0
2018-Apr-25 16:30N 49°28' E 000°09'0 0.0
2018-Apr-25 16:00N 49°28' E 000°09'0 0.0
2018-Apr-25 15:30N 49°28' E 000°09'0 0.0
2018-Apr-25 15:00N 49°28' E 000°09'0 0.0
2018-Apr-25 14:30N 49°28' E 000°09'0 0.2
2018-Apr-25 14:00N 49°28' E 000°09'2 3.7
2018-Apr-25 13:31N 49°28' E 000°06'511.0
2018-Apr-25 13:00N 49°30' W 000°01'713.7
2018-Apr-25 12:30N 49°34' W 000°11'918.1
2018-Apr-25 12:00N 49°43' W 000°12'1019.8
2018-Apr-25 11:30N 49°52' W 000°15'1020.2
2018-Apr-25 11:00N 50°02' W 000°16'1020.2
2018-Apr-25 10:30N 50°12' W 000°15'917.6
2018-Apr-25 10:00N 50°21' W 000°14'713.0
2018-Apr-25 09:30N 50°27' W 000°10'713.3
2018-Apr-25 09:00N 50°30' W 000°00'714.1
2018-Apr-25 08:30N 50°32' E 000°10'714.0
2018-Apr-25 08:00N 50°34' E 000°21'714.1
2018-Apr-25 07:31N 50°35' E 000°32'714.0
2018-Apr-25 07:01N 50°38' E 000°42'714.4
2018-Apr-25 06:31N 50°42' E 000°51'714.0
2018-Apr-25 06:00N 50°47' E 000°60'713.9
2018-Apr-25 05:31N 50°51' E 001°08'713.9
2018-Apr-25 05:00N 50°55' E 001°18'714.1
2018-Apr-25 04:30N 51°00' E 001°25'714.0
2018-Apr-25 04:00N 51°06' E 001°32'714.5
2018-Apr-25 03:31N 51°10' E 001°40'714.8
2018-Apr-25 03:01N 51°16' E 001°48'815.1
2018-Apr-25 02:30N 51°22' E 001°55'612.2
2018-Apr-25 02:00N 51°24' E 002°04'814.1
2018-Apr-25 01:28N 51°21' E 002°15'613.8
2018-Apr-25 01:00N 51°22' E 002°25'713.4
2018-Apr-25 00:28N 51°23' E 002°37'4 8.3
2018-Apr-25 00:00N 51°23' E 002°43'612.0
2018-Apr-24 23:30N 51°25' E 002°52'814.5
2018-Apr-24 22:59N 51°24' E 003°04'714.0
2018-Apr-24 22:30N 51°25' E 003°15'714.9
2018-Apr-24 22:00N 51°25' E 003°27'510.8
2018-Apr-24 21:31N 51°26' E 003°35'5 9.8
2018-Apr-24 21:00N 51°24' E 003°43'612.7
2018-Apr-24 20:30N 51°21' E 003°51'612.1
2018-Apr-24 20:01N 51°25' E 003°58'3 6.5
2018-Apr-24 19:30N 51°23' E 004°02'5 9.7
2018-Apr-24 19:00N 51°23' E 004°10'3 6.5
2018-Apr-24 18:30N 51°21' E 004°14'3 6.2
2018-Apr-24 18:00N 51°19' E 004°16'1 2.5
2018-Apr-24 17:27N 51°17' E 004°15'0 0.1
2018-Apr-24 17:00N 51°17' E 004°15'0 0.0
2018-Apr-24 16:30N 51°17' E 004°15'0 0.0
2018-Apr-24 15:57N 51°17' E 004°15'0 0.0
2018-Apr-24 15:30N 51°17' E 004°15'0 0.0
2018-Apr-24 15:00N 51°17' E 004°15'0 0.0
2018-Apr-24 14:30N 51°17' E 004°15'0 0.0
2018-Apr-24 14:00N 51°17' E 004°15'0 0.0
2018-Apr-24 13:30N 51°17' E 004°15'0 0.0
2018-Apr-24 12:57N 51°17' E 004°15'0 0.0
2018-Apr-24 12:30N 51°17' E 004°15'0 0.0
2018-Apr-24 11:57N 51°17' E 004°15'0 0.0
2018-Apr-24 11:30N 51°17' E 004°15'0 0.0
2018-Apr-24 11:00N 51°17' E 004°15'0 0.0
2018-Apr-24 10:30N 51°17' E 004°15'0 0.0
2018-Apr-24 10:00N 51°17' E 004°15'0 0.0
2018-Apr-24 09:30N 51°17' E 004°15'0 0.0
2018-Apr-24 08:57N 51°17' E 004°15'0 0.0
2018-Apr-24 08:30N 51°17' E 004°15'0 0.0
2018-Apr-24 07:57N 51°17' E 004°15'0 0.0
2018-Apr-24 07:24N 51°17' E 004°15'0 0.0
2018-Apr-24 06:57N 51°17' E 004°15'0 0.0
2018-Apr-24 06:30N 51°17' E 004°15'0 0.0
2018-Apr-24 06:00N 51°17' E 004°15'0 0.0
2018-Apr-24 05:30N 51°17' E 004°15'0 0.0
2018-Apr-24 05:00N 51°17' E 004°15'0 0.0
2018-Apr-24 04:30N 51°17' E 004°15'0 0.0
2018-Apr-24 04:00N 51°17' E 004°15'0 0.0
2018-Apr-24 03:30N 51°17' E 004°15'0 0.0
2018-Apr-24 02:57N 51°17' E 004°15'0 0.0
2018-Apr-24 02:30N 51°17' E 004°15'0 0.0
2018-Apr-24 02:00N 51°17' E 004°15'0 0.0
2018-Apr-24 01:30N 51°17' E 004°15'0 0.0
2018-Apr-24 01:00N 51°17' E 004°15'0 0.0
2018-Apr-24 00:27N 51°17' E 004°15'0 0.0
2018-Apr-23 23:57N 51°17' E 004°15'0 0.0
2018-Apr-23 23:30N 51°17' E 004°15'0 0.0
2018-Apr-23 23:00N 51°17' E 004°15'0 0.0
2018-Apr-23 22:30N 51°17' E 004°15'0 0.0
2018-Apr-23 22:00N 51°17' E 004°15'0 0.0
2018-Apr-23 21:30N 51°17' E 004°15'0 0.0
2018-Apr-23 20:57N 51°17' E 004°15'0 0.0
2018-Apr-23 20:30N 51°17' E 004°15'0 0.0
2018-Apr-23 19:57N 51°17' E 004°15'0 0.0
2018-Apr-23 19:30N 51°17' E 004°15'0 0.0
2018-Apr-23 19:00N 51°17' E 004°15'0 0.0
2018-Apr-23 18:30N 51°17' E 004°15'0 0.0
2018-Apr-23 17:54N 51°17' E 004°15'0 0.0
2018-Apr-23 17:30N 51°17' E 004°15'0 0.0
2018-Apr-23 16:57N 51°17' E 004°15'0 0.0
2018-Apr-23 16:30N 51°17' E 004°15'0 0.0
2018-Apr-23 15:54N 51°17' E 004°15'0 0.0
2018-Apr-23 15:24N 51°17' E 004°15'0 0.0
2018-Apr-23 15:00N 51°17' E 004°15'0 0.0
2018-Apr-23 14:30N 51°17' E 004°15'0 0.0
2018-Apr-23 14:00N 51°17' E 004°15'0 0.0
2018-Apr-23 13:30N 51°17' E 004°15'0 0.0
2018-Apr-23 13:00N 51°17' E 004°15'0 0.0
2018-Apr-23 12:30N 51°17' E 004°15'0 0.0
2018-Apr-23 12:00N 51°17' E 004°15'1 1.4
2018-Apr-23 11:31N 51°18' E 004°16'1 1.6
2018-Apr-23 11:00N 51°19' E 004°16'3 6.1
2018-Apr-23 10:31N 51°21' E 004°14'3 6.4
2018-Apr-23 10:00N 51°23' E 004°09'5 9.1
2018-Apr-23 09:30N 51°23' E 004°02'3 6.1
2018-Apr-23 09:00N 51°25' E 003°58'511.0
2018-Apr-23 08:30N 51°21' E 003°52'612.6
2018-Apr-23 08:00N 51°23' E 003°43'4 8.0
2018-Apr-23 07:31N 51°26' E 003°39'4 8.2
2018-Apr-23 07:00N 51°25' E 003°32'714.4
2018-Apr-23 06:30N 51°24' E 003°21'917.5
2018-Apr-23 06:00N 51°24' E 003°07'917.3
2018-Apr-23 05:31N 51°25' E 002°53'713.8
2018-Apr-23 05:00N 51°23' E 002°42'510.0
2018-Apr-23 04:29N 51°22' E 002°34'4 8.2
2018-Apr-23 04:00N 51°22' E 002°28'4 8.4
2018-Apr-23 03:30N 51°20' E 002°22'4 8.3
2018-Apr-23 03:00N 51°18' E 002°16'4 8.8
2018-Apr-23 02:31N 51°18' E 002°09'5 9.0
2018-Apr-23 02:00N 51°21' E 002°04'5 9.4
2018-Apr-23 01:30N 51°24' E 001°58'5 9.6
2018-Apr-23 01:00N 51°27' E 001°53'5 9.7
2018-Apr-23 00:30N 51°32' E 001°49'5 9.9
2018-Apr-23 00:00N 51°36' E 001°46'510.0
2018-Apr-22 23:30N 51°41' E 001°45'510.1
2018-Apr-22 23:00N 51°46' E 001°44'5 9.5
2018-Apr-22 22:31N 51°51' E 001°41'5 9.4
2018-Apr-22 22:00N 51°52' E 001°34'5 9.9
2018-Apr-22 21:30N 51°56' E 001°29'611.7
2018-Apr-22 21:00N 51°55' E 001°20'2 3.3
2018-Apr-22 20:30N 51°57' E 001°19'0 0.0
2018-Apr-22 20:00N 51°57' E 001°19'0 0.0
2018-Apr-22 19:30N 51°57' E 001°19'0 0.0
2018-Apr-22 19:00N 51°57' E 001°19'0 0.0
2018-Apr-22 18:30N 51°57' E 001°19'0 0.0
2018-Apr-22 18:00N 51°57' E 001°19'0 0.0
2018-Apr-22 17:30N 51°57' E 001°19'0 0.0
2018-Apr-22 17:00N 51°57' E 001°19'0 0.0
2018-Apr-22 16:30N 51°57' E 001°19'0 0.0
2018-Apr-22 16:00N 51°57' E 001°19'0 0.0
2018-Apr-22 15:30N 51°57' E 001°19'0 0.0
2018-Apr-22 15:00N 51°57' E 001°19'0 0.0
2018-Apr-22 14:30N 51°57' E 001°19'0 0.0
2018-Apr-22 14:00N 51°57' E 001°19'0 0.0
2018-Apr-22 13:30N 51°57' E 001°19'0 0.0
2018-Apr-22 12:57N 51°57' E 001°19'0 0.0
2018-Apr-22 12:30N 51°57' E 001°19'0 0.0
2018-Apr-22 12:00N 51°57' E 001°19'0 0.0
2018-Apr-22 11:30N 51°57' E 001°19'0 0.0
2018-Apr-22 11:00N 51°57' E 001°19'0 0.0
2018-Apr-22 10:30N 51°57' E 001°19'0 0.0
2018-Apr-22 10:00N 51°57' E 001°19'0 0.0
2018-Apr-22 09:30N 51°57' E 001°19'0 0.0
2018-Apr-22 09:00N 51°57' E 001°19'0 0.0
2018-Apr-22 08:30N 51°57' E 001°19'0 0.0
2018-Apr-22 08:00N 51°57' E 001°19'0 0.0
2018-Apr-22 07:30N 51°57' E 001°19'0 0.0
2018-Apr-22 07:00N 51°57' E 001°19'0 0.0
2018-Apr-22 06:30N 51°57' E 001°19'0 0.0
2018-Apr-22 06:00N 51°57' E 001°19'0 0.0
2018-Apr-22 05:30N 51°57' E 001°19'0 0.0
2018-Apr-22 05:00N 51°57' E 001°19'0 0.0
2018-Apr-22 04:30N 51°57' E 001°19'0 0.0
2018-Apr-22 04:00N 51°57' E 001°19'0 0.0
2018-Apr-22 03:30N 51°57' E 001°19'0 0.0
2018-Apr-22 03:00N 51°57' E 001°19'0 0.0
2018-Apr-22 02:30N 51°57' E 001°19'0 0.0
2018-Apr-22 02:00N 51°57' E 001°19'0 0.0
2018-Apr-22 01:30N 51°57' E 001°19'0 0.0
2018-Apr-22 01:00N 51°57' E 001°19'0 0.0
2018-Apr-22 00:30N 51°57' E 001°19'0 0.0
2018-Apr-22 00:00N 51°57' E 001°19'0 0.0
2018-Apr-21 23:30N 51°57' E 001°19'0 0.0
2018-Apr-21 23:00N 51°57' E 001°19'0 0.0
2018-Apr-21 22:30N 51°57' E 001°19'0 0.0
2018-Apr-21 22:00N 51°57' E 001°19'0 0.0
2018-Apr-21 21:27N 51°57' E 001°19'0 0.0
2018-Apr-21 21:00N 51°57' E 001°19'0 0.0
2018-Apr-21 20:30N 51°57' E 001°19'0 0.0
2018-Apr-21 20:00N 51°57' E 001°19'0 0.0
2018-Apr-21 19:30N 51°57' E 001°19'0 0.0
2018-Apr-21 19:00N 51°57' E 001°19'0 0.0
2018-Apr-21 18:30N 51°57' E 001°19'0 0.0
2018-Apr-21 18:00N 51°57' E 001°19'0 0.0
2018-Apr-21 17:30N 51°57' E 001°19'0 0.0
2018-Apr-21 17:00N 51°57' E 001°19'0 0.0
2018-Apr-21 16:30N 51°57' E 001°19'0 0.0
2018-Apr-21 16:00N 51°57' E 001°19'0 0.0
2018-Apr-21 15:30N 51°57' E 001°19'0 0.0
2018-Apr-21 15:00N 51°57' E 001°19'0 0.0
2018-Apr-21 14:30N 51°57' E 001°19'0 0.0
2018-Apr-21 14:00N 51°57' E 001°19'0 0.0
2018-Apr-21 13:30N 51°57' E 001°19'0 0.0
2018-Apr-21 13:00N 51°57' E 001°19'0 0.0
2018-Apr-21 12:30N 51°57' E 001°19'0 0.0
2018-Apr-21 12:00N 51°57' E 001°19'0 0.0
2018-Apr-21 11:30N 51°57' E 001°19'0 0.0
2018-Apr-21 11:00N 51°57' E 001°19'0 0.0
2018-Apr-21 10:30N 51°57' E 001°19'0 0.0
2018-Apr-21 10:00N 51°57' E 001°19'0 0.0
2018-Apr-21 09:30N 51°57' E 001°19'0 0.0
2018-Apr-21 09:00N 51°57' E 001°19'0 0.0
2018-Apr-21 08:30N 51°57' E 001°19'0 0.0
2018-Apr-21 08:00N 51°57' E 001°19'0 0.0
2018-Apr-21 07:30N 51°57' E 001°19'0 0.0
2018-Apr-21 06:57N 51°57' E 001°19'0 0.0
2018-Apr-21 06:30N 51°57' E 001°19'0 0.0
2018-Apr-21 06:00N 51°57' E 001°19'0 0.0
2018-Apr-21 05:30N 51°57' E 001°19'0 0.0
2018-Apr-21 05:00N 51°57' E 001°19'0 0.0
2018-Apr-21 04:30N 51°57' E 001°19'0 0.0
2018-Apr-21 04:00N 51°57' E 001°19'0 0.0
2018-Apr-21 03:27N 51°57' E 001°19'0 0.0
2018-Apr-21 03:00N 51°57' E 001°19'0 0.0
2018-Apr-21 02:30N 51°57' E 001°19'0 0.0
2018-Apr-21 02:00N 51°57' E 001°19'0 0.0
2018-Apr-21 01:30N 51°57' E 001°19'0 0.0
2018-Apr-21 01:00N 51°57' E 001°19'0 0.0
2018-Apr-21 00:30N 51°57' E 001°19'0 0.0
2018-Apr-21 00:00N 51°57' E 001°19'0 0.0
2018-Apr-20 23:30N 51°57' E 001°19'0 0.0
2018-Apr-20 23:00N 51°57' E 001°19'0 0.0
2018-Apr-20 22:30N 51°57' E 001°19'0 0.0
2018-Apr-20 22:00N 51°57' E 001°19'0 0.0
2018-Apr-20 21:30N 51°57' E 001°19'0 0.1
2018-Apr-20 21:00N 51°57' E 001°19'0 0.9
2018-Apr-20 20:30N 51°56' E 001°19'4 7.6
2018-Apr-20 20:00N 51°56' E 001°25'611.9
2018-Apr-20 19:30N 51°54' E 001°34'4 8.9
2018-Apr-20 19:01N 51°52' E 001°40'3 5.0
2018-Apr-20 18:30N 51°52' E 001°44'510.3
2018-Apr-20 18:01N 51°49' E 001°52'510.8
2018-Apr-20 17:30N 51°52' E 001°60'510.6
2018-Apr-20 17:00N 51°54' E 002°07'510.6
2018-Apr-20 16:30N 51°56' E 002°15'611.5
2018-Apr-20 16:00N 51°58' E 002°24'2614.3
2018-Apr-20 14:12N 52°12' E 002°59'315.3
2018-Apr-20 14:00N 52°15' E 003°02'915.5
2018-Apr-20 13:27N 52°22' E 003°11'715.6
2018-Apr-20 13:00N 52°27' E 003°18'815.6
2018-Apr-20 12:29N 52°33' E 003°26'815.9
2018-Apr-20 12:01N 52°39' E 003°34'815.8
2018-Apr-20 11:31N 52°45' E 003°42'816.1
2018-Apr-20 11:01N 52°51' E 003°51'815.9
2018-Apr-20 10:30N 52°57' E 003°60'816.1
2018-Apr-20 10:00N 53°03' E 004°10'815.8
2018-Apr-20 09:30N 53°08' E 004°19'815.0
2018-Apr-20 09:00N 53°14' E 004°27'815.4
2018-Apr-20 08:31N 53°21' E 004°32'815.3
2018-Apr-20 08:00N 53°28' E 004°38'715.2
2018-Apr-20 07:30N 53°32' E 004°49'815.3
2018-Apr-20 07:00N 53°34' E 005°01'815.1
2018-Apr-20 06:30N 53°37' E 005°13'714.8
2018-Apr-20 06:00N 53°39' E 005°24'715.0
2018-Apr-20 05:31N 53°42' E 005°36'816.0
2018-Apr-20 05:00N 53°44' E 005°49'915.9
2018-Apr-20 04:27N 53°47' E 006°04'715.7
2018-Apr-20 04:00N 53°49' E 006°15'815.6
2018-Apr-20 03:30N 53°51' E 006°27'815.6
2018-Apr-20 03:00N 53°53' E 006°40'815.7
2018-Apr-20 02:28N 53°55' E 006°54'715.5
2018-Apr-20 02:00N 53°56' E 007°06'815.6
2018-Apr-20 01:29N 53°58' E 007°20'815.5
2018-Apr-20 00:59N 53°59' E 007°33'714.5
2018-Apr-20 00:29N 53°55' E 007°44'814.4
2018-Apr-19 23:54N 53°50' E 007°54'512.3
2018-Apr-19 23:30N 53°48' E 008°01'713.5
2018-Apr-19 23:00N 53°41' E 008°05'611.6
2018-Apr-19 22:30N 53°36' E 008°10'1 1.6
2018-Apr-19 22:00N 53°35' E 008°09'0 0.1
2018-Apr-19 21:28N 53°35' E 008°09'0 0.0
2018-Apr-19 20:58N 53°35' E 008°09'0 0.0
2018-Apr-19 20:28N 53°35' E 008°09'0 0.0
2018-Apr-19 19:58N 53°35' E 008°09'0 0.0
2018-Apr-19 19:28N 53°35' E 008°09'0 0.0
2018-Apr-19 18:58N 53°35' E 008°09'0 0.0
2018-Apr-19 18:28N 53°35' E 008°09'0 0.0
2018-Apr-19 17:58N 53°35' E 008°09'0 0.0
2018-Apr-19 17:28N 53°35' E 008°09'0 0.0
2018-Apr-19 16:55N 53°35' E 008°09'0 0.0
2018-Apr-19 16:28N 53°35' E 008°09'0 0.0
2018-Apr-19 15:58N 53°35' E 008°09'0 0.0
2018-Apr-19 15:25N 53°35' E 008°09'0 0.0
2018-Apr-19 14:58N 53°35' E 008°09'0 0.0
2018-Apr-19 14:28N 53°35' E 008°09'0 0.0
2018-Apr-19 13:58N 53°35' E 008°09'0 0.0
2018-Apr-19 13:28N 53°35' E 008°09'0 0.0
2018-Apr-19 12:58N 53°35' E 008°09'0 0.0
2018-Apr-19 12:28N 53°35' E 008°09'0 0.0
2018-Apr-19 11:58N 53°35' E 008°09'0 0.0
2018-Apr-19 11:28N 53°35' E 008°09'0 0.0
2018-Apr-19 10:58N 53°35' E 008°09'0 0.0
2018-Apr-19 10:28N 53°35' E 008°09'0 0.0
2018-Apr-19 09:58N 53°35' E 008°09'0 0.0
2018-Apr-19 09:28N 53°35' E 008°09'0 0.0
2018-Apr-19 08:58N 53°35' E 008°09'0 0.0
2018-Apr-19 08:28N 53°35' E 008°09'0 0.0
2018-Apr-19 07:58N 53°35' E 008°09'0 0.0
2018-Apr-19 07:28N 53°35' E 008°09'0 0.0
2018-Apr-19 06:58N 53°35' E 008°09'0 0.0
2018-Apr-19 06:30N 53°35' E 008°09'1 1.1
2018-Apr-19 06:00N 53°36' E 008°09'3 6.0
2018-Apr-19 05:30N 53°39' E 008°08'612.5
2018-Apr-19 05:00N 53°44' E 008°03'611.1
2018-Apr-19 04:30N 53°49' E 007°57'5 9.2
2018-Apr-19 04:00N 53°52' E 007°53'919.0
2018-Apr-19 03:31N 53°49' E 008°07'918.7
2018-Apr-19 03:01N 53°42' E 008°19'815.4
2018-Apr-19 02:30N 53°37' E 008°29'2 3.2
2018-Apr-19 02:00N 53°36' E 008°31'0 0.0
2018-Apr-19 01:29N 53°36' E 008°31'0 0.0
2018-Apr-19 00:59N 53°36' E 008°31'0 0.0
2018-Apr-19 00:29N 53°36' E 008°31'0 0.0
2018-Apr-18 23:59N 53°36' E 008°31'0 0.0
2018-Apr-18 23:29N 53°36' E 008°31'0 0.0
2018-Apr-18 22:59N 53°36' E 008°31'0 0.0
2018-Apr-18 22:29N 53°36' E 008°31'0 0.0
2018-Apr-18 21:59N 53°36' E 008°31'0 0.0
2018-Apr-18 21:29N 53°36' E 008°31'0 0.0
2018-Apr-18 20:59N 53°36' E 008°31'0 0.0
2018-Apr-18 20:29N 53°36' E 008°31'0 0.0
2018-Apr-18 19:59N 53°36' E 008°31'0 0.0
2018-Apr-18 19:29N 53°36' E 008°31'0 0.0
2018-Apr-18 18:59N 53°36' E 008°31'0 0.0
2018-Apr-18 18:29N 53°36' E 008°31'0 0.0
2018-Apr-18 17:59N 53°36' E 008°31'0 0.0
2018-Apr-18 17:29N 53°36' E 008°31'0 0.0
2018-Apr-18 16:59N 53°36' E 008°31'0 0.0
2018-Apr-18 16:29N 53°36' E 008°31'0 0.0
2018-Apr-18 15:59N 53°36' E 008°31'0 0.0
2018-Apr-18 15:29N 53°36' E 008°31'0 0.0
2018-Apr-18 14:59N 53°36' E 008°31'0 0.0
2018-Apr-18 14:29N 53°36' E 008°31'0 0.0
2018-Apr-18 13:59N 53°36' E 008°31'0 0.0
2018-Apr-18 13:26N 53°36' E 008°31'0 0.0
2018-Apr-18 12:59N 53°36' E 008°31'0 0.0
2018-Apr-18 12:29N 53°36' E 008°31'0 0.0
2018-Apr-18 11:59N 53°36' E 008°31'0 0.0
2018-Apr-18 11:26N 53°36' E 008°31'0 0.0
2018-Apr-18 10:59N 53°36' E 008°31'0 0.0
2018-Apr-18 10:29N 53°36' E 008°31'0 0.0
2018-Apr-18 09:59N 53°36' E 008°31'0 0.0
2018-Apr-18 09:29N 53°36' E 008°31'0 0.0
2018-Apr-18 08:59N 53°36' E 008°31'0 0.0
2018-Apr-18 08:29N 53°36' E 008°31'0 0.0
2018-Apr-18 07:59N 53°36' E 008°31'0 0.0
2018-Apr-18 07:29N 53°36' E 008°31'0 0.0
2018-Apr-18 06:59N 53°36' E 008°31'0 0.0
2018-Apr-18 06:29N 53°36' E 008°31'0 0.0
2018-Apr-18 05:59N 53°36' E 008°31'0 0.0
2018-Apr-18 05:29N 53°36' E 008°31'0 0.0
2018-Apr-18 04:59N 53°36' E 008°31'0 0.0
2018-Apr-18 04:29N 53°36' E 008°31'0 0.0
2018-Apr-18 03:59N 53°36' E 008°31'0 0.0
2018-Apr-18 03:29N 53°36' E 008°31'0 0.0
2018-Apr-18 02:59N 53°36' E 008°31'0 0.0
2018-Apr-18 02:29N 53°36' E 008°31'0 0.0
2018-Apr-18 01:59N 53°36' E 008°31'0 0.0
2018-Apr-18 01:29N 53°36' E 008°31'0 0.0
2018-Apr-18 00:59N 53°36' E 008°31'0 0.0
2018-Apr-18 00:29N 53°36' E 008°31'0 0.0
2018-Apr-17 23:59N 53°36' E 008°31'0 0.0
2018-Apr-17 23:29N 53°36' E 008°31'0 0.0
2018-Apr-17 23:01N 53°36' E 008°31'0 0.9
2018-Apr-17 22:31N 53°36' E 008°31'1 1.3
2018-Apr-17 22:00N 53°36' E 008°30'510.7
2018-Apr-17 21:31N 53°40' E 008°23'816.1
2018-Apr-17 21:00N 53°45' E 008°13'816.6
2018-Apr-17 20:30N 53°51' E 008°03'918.8
2018-Apr-17 20:00N 53°53' E 007°47'814.5
2018-Apr-17 19:29N 53°57' E 007°36'612.2
2018-Apr-17 19:00N 54°01' E 007°42'1614.4
2018-Apr-17 17:52N 54°01' E 008°10'3 7.8
2018-Apr-17 17:30N 54°00' E 008°15'611.5
2018-Apr-17 17:00N 53°59' E 008°24'918.0
2018-Apr-17 16:30N 53°57' E 008°39'714.2
2018-Apr-17 16:00N 53°51' E 008°46'714.1
2018-Apr-17 15:30N 53°51' E 008°58'713.2
2018-Apr-17 15:00N 53°53' E 009°08'510.3
2018-Apr-17 14:30N 53°52' E 009°17'612.2
2018-Apr-17 14:01N 53°47' E 009°23'510.5
2018-Apr-17 13:30N 53°43' E 009°29'5 9.4
2018-Apr-17 13:00N 53°39' E 009°31'510.4
2018-Apr-17 12:30N 53°35' E 009°37'4 8.4
2018-Apr-17 12:00N 53°34' E 009°44'4 8.3
2018-Apr-17 11:30N 53°33' E 009°51'3 5.3
2018-Apr-17 10:59N 53°32' E 009°55'0 0.3
2018-Apr-17 10:29N 53°32' E 009°55'0 0.0
2018-Apr-17 09:59N 53°32' E 009°55'0 0.0
2018-Apr-17 09:29N 53°32' E 009°55'0 0.0
2018-Apr-17 08:59N 53°32' E 009°55'0 0.0
2018-Apr-17 08:29N 53°32' E 009°55'0 0.0
2018-Apr-17 07:59N 53°32' E 009°55'0 0.0
2018-Apr-17 07:29N 53°32' E 009°55'0 0.0
2018-Apr-17 06:59N 53°32' E 009°55'0 0.0
2018-Apr-17 06:29N 53°32' E 009°55'0 0.0
2018-Apr-17 05:59N 53°32' E 009°55'0 0.0
2018-Apr-17 05:29N 53°32' E 009°55'0 0.0
2018-Apr-17 04:59N 53°32' E 009°55'0 0.0
2018-Apr-17 04:29N 53°32' E 009°55'0 0.0
2018-Apr-17 03:59N 53°32' E 009°55'0 0.0
2018-Apr-17 03:29N 53°32' E 009°55'0 0.0
2018-Apr-17 02:59N 53°32' E 009°55'0 0.0
2018-Apr-17 02:29N 53°32' E 009°55'0 0.0
2018-Apr-17 01:59N 53°32' E 009°55'0 0.0
2018-Apr-17 01:29N 53°32' E 009°55'0 0.0
2018-Apr-17 00:59N 53°32' E 009°55'0 0.0
2018-Apr-17 00:29N 53°32' E 009°55'0 0.0
2018-Apr-16 23:59N 53°32' E 009°55'0 0.0
2018-Apr-16 23:29N 53°32' E 009°55'0 0.0
2018-Apr-16 22:59N 53°32' E 009°55'0 0.0
2018-Apr-16 22:29N 53°32' E 009°55'0 0.0
2018-Apr-16 21:59N 53°32' E 009°55'0 0.0
2018-Apr-16 21:29N 53°32' E 009°55'0 0.0
2018-Apr-16 20:59N 53°32' E 009°55'0 0.0
2018-Apr-16 20:29N 53°32' E 009°55'0 0.0
2018-Apr-16 19:59N 53°32' E 009°55'0 0.0
2018-Apr-16 19:29N 53°32' E 009°55'0 0.0
2018-Apr-16 18:59N 53°32' E 009°55'0 0.0
2018-Apr-16 18:29N 53°32' E 009°55'0 0.0
2018-Apr-16 17:59N 53°32' E 009°55'0 0.0
2018-Apr-16 17:29N 53°32' E 009°55'0 0.0
2018-Apr-16 16:59N 53°32' E 009°55'0 0.0
2018-Apr-16 16:29N 53°32' E 009°55'0 0.0
2018-Apr-16 15:59N 53°32' E 009°55'0 0.0
2018-Apr-16 15:29N 53°32' E 009°55'0 0.0
2018-Apr-16 14:59N 53°32' E 009°55'0 0.0
2018-Apr-16 14:29N 53°32' E 009°55'0 0.0
2018-Apr-16 13:59N 53°32' E 009°55'0 0.0
2018-Apr-16 13:29N 53°32' E 009°55'0 0.0
2018-Apr-16 12:59N 53°32' E 009°55'0 0.0
2018-Apr-16 12:29N 53°32' E 009°55'0 0.0
2018-Apr-16 11:59N 53°32' E 009°55'0 0.0
2018-Apr-16 11:29N 53°32' E 009°55'0 0.0
2018-Apr-16 10:59N 53°32' E 009°55'0 0.0
2018-Apr-16 10:29N 53°32' E 009°55'0 0.0
2018-Apr-16 09:59N 53°32' E 009°55'0 0.0
2018-Apr-16 09:29N 53°32' E 009°55'0 0.0
2018-Apr-16 08:59N 53°32' E 009°55'0 0.0
2018-Apr-16 08:29N 53°32' E 009°55'0 0.0
2018-Apr-16 07:59N 53°32' E 009°55'0 0.0
2018-Apr-16 07:29N 53°32' E 009°55'0 0.0
2018-Apr-16 06:59N 53°32' E 009°55'0 0.0
2018-Apr-16 06:29N 53°32' E 009°55'0 0.0
2018-Apr-16 05:59N 53°32' E 009°55'0 0.0
2018-Apr-16 05:29N 53°32' E 009°55'0 0.0
2018-Apr-16 04:59N 53°32' E 009°55'0 0.0
2018-Apr-16 04:31N 53°32' E 009°55'0 0.5
2018-Apr-16 04:01N 53°32' E 009°55'1 1.7
2018-Apr-16 03:31N 53°32' E 009°54'3 5.4
2018-Apr-16 03:00N 53°33' E 009°50'5 9.5
2018-Apr-16 02:31N 53°34' E 009°42'611.7
2018-Apr-16 02:01N 53°37' E 009°33'611.1
2018-Apr-16 01:30N 53°42' E 009°30'611.9
2018-Apr-16 01:00N 53°47' E 009°23'612.2
2018-Apr-16 00:31N 53°52' E 009°18'612.0
2018-Apr-16 00:00N 53°53' E 009°08'611.8
2018-Apr-15 23:30N 53°51' E 008°58'713.6
2018-Apr-15 23:00N 53°51' E 008°47'612.8
2018-Apr-15 22:30N 53°56' E 008°40'714.8
2018-Apr-15 22:00N 53°59' E 008°28'  

Dump ship's entire track history